Crosskeys, Virginia
Current Conditions -  °F | °C
As of 6:15 PM on Wednesday 26 Nov 2014 (Local Time) from KVBW Reporting Station
Overcast Overcast  
Wind Chill: 33°   Ceiling: 900
Heat Index: 33°   Visibility: 3mi
Dew Point: 32°   Wind: 0mph
Humidity: 98%   Direction: NA
Pressure: 29.97"   Gusts: NA
Location:  38.339°N, 78.8869°W
Report Text: KVBW 262315Z AUTO 00000KT 3SM SCT006 BKN009 OVC090 00/00 A2997 RMK AO2 T00040001
Loading
Personal Weather Stations






























Interactive Weather Map New forecast layout! Learn more

10-Day Weather Forecast

Advertisements
Track Severe Weather on mobile